Time;durP1;ratioP1;P1;durP2;ratioP2;P2;SDS_P1;SDS_P2;PMS_P1;PMS_P2;Temp;Humidity;BMP_temperature;BMP_pressure;BME280_temperature;BME280_humidity;BME280_pressure;Samples;Min_cycle;Max_cycle;Signal;HPM_P1;HPM_P2
2021/12/17 00:00:18;;;;;;;14.43;12.63;;;;;;;8.48;59.07;100267.94;5093905;28;20012;-51
2021/12/17 00:05:31;;;;;;;22.50;12.20;;;;;;;8.18;59.61;100265.44;5093793;28;20085;-51
2021/12/17 00:07:57;;;;;;;15.90;11.68;;;;;;;8.19;60.43;100263.69;5093741;28;20034;-51
2021/12/17 00:10:23;;;;;;;15.00;11.60;;;;;;;8.36;59.61;100267.28;5093527;28;20389;-51
2021/12/17 00:12:51;;;;;;;15.45;12.05;;;;;;;8.25;60.33;100263.09;5093601;28;20024;-51
2021/12/17 00:15:17;;;;;;;16.92;12.02;;;;;;;8.32;59.50;100271.16;5093531;28;20032;-51
2021/12/17 00:17:54;;;;;;;14.27;11.30;;;;;;;8.34;59.85;100275.28;5093491;28;20017;-51
2021/12/17 00:49:50;;;;;;;15.35;12.68;;;;;;;7.42;61.06;100283.06;5092896;28;20027;-51
2021/12/17 00:52:15;;;;;;;21.17;14.60;;;;;;;7.37;61.68;100273.84;5092825;28;20026;-51
2021/12/17 00:54:43;;;;;;;20.42;14.75;;;;;;;7.42;61.79;100276.03;5092723;28;20024;-51
2021/12/17 00:57:12;;;;;;;19.13;15.90;;;;;;;7.60;62.17;100276.94;5092729;28;20521;-51
2021/12/17 00:59:39;;;;;;;19.75;15.70;;;;;;;7.64;61.46;100280.13;5091391;28;20525;-51
2021/12/17 01:02:09;;;;;;;17.35;14.40;;;;;;;7.73;61.62;100283.69;5092682;28;20034;-51
2021/12/17 01:04:38;;;;;;;20.27;16.17;;;;;;;7.73;61.34;100276.66;5092944;28;20016;-49
2021/12/17 01:07:05;;;;;;;19.35;15.75;;;;;;;7.74;61.19;100274.88;5092565;28;20049;-51
2021/12/17 01:09:32;;;;;;;19.55;15.00;;;;;;;7.74;61.25;100275.69;5092530;28;20390;-51
2021/12/17 01:11:59;;;;;;;22.42;14.73;;;;;;;7.80;60.90;100276.91;5092355;28;20024;-50
2021/12/17 01:14:28;;;;;;;19.10;14.63;;;;;;;7.77;60.55;100269.38;5092457;28;20066;-51
2021/12/17 01:16:54;;;;;;;18.95;13.85;;;;;;;7.72;61.15;100275.00;5092346;28;20028;-50
2021/12/17 01:19:42;;;;;;;18.95;13.35;;;;;;;7.66;61.44;100270.34;5092372;28;20026;-51
2021/12/17 01:35:29;;;;;;;24.08;15.35;;;;;;;7.64;61.06;100266.22;5092485;28;20088;-51
2021/12/17 01:43:16;;;;;;;17.48;13.40;;;;;;;7.67;61.33;100277.22;5092052;28;20035;-51
2021/12/17 01:45:43;;;;;;;16.60;13.23;;;;;;;7.61;61.67;100280.41;5092032;28;20024;-51
2021/12/17 01:48:15;;;;;;;22.98;14.90;;;;;;;7.57;61.54;100277.25;5091934;28;20055;-51
2021/12/17 01:56:50;;;;;;;16.52;13.82;;;;;;;7.47;61.71;100279.06;5092153;28;20077;-51
2021/12/17 02:01:42;;;;;;;24.35;15.63;;;;;;;7.86;61.79;100294.63;5091867;28;20115;-51
2021/12/17 02:04:08;;;;;;;19.55;12.80;;;;;;;8.16;61.15;100292.72;5091862;28;20441;-48
2021/12/17 02:06:37;;;;;;;16.63;13.68;;;;;;;8.16;60.98;100296.16;5091788;28;20016;-48
2021/12/17 02:09:17;;;;;;;19.42;15.25;;;;;;;7.96;60.96;100289.38;5091713;28;20028;-49
2021/12/17 02:19:42;;;;;;;25.55;14.63;;;;;;;8.11;61.01;100294.94;5091684;28;20081;-51
2021/12/17 02:30:49;;;;;;;19.63;14.98;;;;;;;7.94;61.55;100297.34;5095365;28;20193;-52
2021/12/17 02:33:15;;;;;;;26.13;22.88;;;;;;;7.89;61.35;100296.16;5095570;28;20073;-51
2021/12/17 02:35:44;;;;;;;25.95;21.20;;;;;;;7.80;61.60;100296.00;5095495;28;20106;-48
2021/12/17 02:38:13;;;;;;;19.13;14.95;;;;;;;7.89;60.78;100288.31;5095393;28;20482;-52
2021/12/17 02:46:07;;;;;;;18.50;14.80;;;;;;;7.95;62.02;100285.94;5095583;28;20039;-51
2021/12/17 02:48:34;;;;;;;20.02;14.90;;;;;;;7.96;61.03;100291.97;5094220;28;20024;-51
2021/12/17 02:51:01;;;;;;;25.80;17.80;;;;;;;7.79;60.93;100294.38;5095043;28;20039;-49
2021/12/17 02:53:29;;;;;;;74.40;57.30;;;;;;;7.75;61.58;100284.38;5095130;28;20025;-51
2021/12/17 02:56:02;;;;;;;330.95;233.80;;;;;;;7.86;62.55;100293.81;5095038;28;20024;-50
2021/12/17 02:58:31;;;;;;;99.70;76.88;;;;;;;8.16;62.38;100290.09;5095117;28;20578;-51
2021/12/17 03:00:58;;;;;;;35.28;26.60;;;;;;;8.40;60.93;100287.78;5094936;28;20078;-51
2021/12/17 03:03:26;;;;;;;37.08;31.73;;;;;;;8.50;60.96;100285.13;5094925;28;20028;-51
2021/12/17 03:05:53;;;;;;;22.67;17.52;;;;;;;8.50;60.12;100281.69;5094858;28;20436;-51
2021/12/17 03:08:20;;;;;;;19.67;16.52;;;;;;;8.30;60.31;100291.41;5094858;28;20610;-52
2021/12/17 03:10:48;;;;;;;20.08;16.15;;;;;;;8.25;60.35;100296.25;5094764;28;20152;-51
2021/12/17 03:13:16;;;;;;;21.45;16.15;;;;;;;8.33;60.77;100291.13;5094705;28;20049;-51
2021/12/17 03:15:54;;;;;;;20.27;14.65;;;;;;;8.31;60.21;100293.06;5094661;28;20028;-52
2021/12/17 03:23:49;;;;;;;21.38;15.20;;;;;;;8.25;59.97;100291.03;5094878;28;20508;-50
2021/12/17 03:26:24;;;;;;;20.50;15.73;;;;;;;8.35;59.61;100291.78;5094491;28;20066;-51
2021/12/17 03:28:52;;;;;;;18.20;14.18;;;;;;;8.36;59.84;100293.44;5094325;28;20043;-51
2021/12/17 03:31:20;;;;;;;19.40;14.88;;;;;;;8.47;59.50;100295.91;5094321;28;20579;-51
2021/12/17 03:33:48;;;;;;;21.90;15.10;;;;;;;8.49;59.54;100299.19;5093211;28;20508;-51
2021/12/17 03:36:16;;;;;;;19.67;15.00;;;;;;;8.38;59.33;100302.78;5094303;28;20019;-49
2021/12/17 03:38:45;;;;;;;27.52;19.98;;;;;;;8.33;59.83;100301.56;5094308;28;20107;-51
2021/12/17 03:41:18;;;;;;;16.90;14.07;;;;;;;8.29;59.88;100302.84;5094263;28;20128;-52
2021/12/17 03:43:47;;;;;;;18.27;14.23;;;;;;;8.26;59.72;100306.56;5094243;28;20019;-51
2021/12/17 03:46:13;;;;;;;17.85;14.48;;;;;;;8.26;59.49;100303.97;5094143;28;20027;-49
2021/12/17 03:48:40;;;;;;;17.60;14.00;;;;;;;8.26;59.97;100297.91;5094060;28;20059;-51
2021/12/17 03:51:16;;;;;;;18.50;14.50;;;;;;;8.19;60.03;100298.50;5094030;28;20031;-51
2021/12/17 03:53:46;;;;;;;22.40;14.63;;;;;;;8.02;59.53;100295.81;5094072;28;20073;-51
2021/12/17 03:56:12;;;;;;;25.17;19.80;;;;;;;8.02;61.23;100306.28;5092679;28;20140;-51
2021/12/17 03:58:38;;;;;;;19.05;15.32;;;;;;;8.19;60.43;100303.72;5093907;28;20456;-51
2021/12/17 04:01:05;;;;;;;18.42;14.77;;;;;;;8.15;59.86;100306.78;5093906;28;20024;-51
2021/12/17 04:03:31;;;;;;;18.77;13.32;;;;;;;7.91;60.56;100307.28;5093876;28;20055;-51
2021/12/17 04:05:57;;;;;;;18.15;13.50;;;;;;;7.81;60.37;100309.94;5093791;28;20017;-50
2021/12/17 04:08:22;;;;;;;19.98;15.95;;;;;;;7.79;61.15;100312.69;5093781;28;20020;-51
2021/12/17 04:10:51;;;;;;;16.65;13.68;;;;;;;7.78;60.92;100318.84;5093534;28;20043;-48
2021/12/17 04:15:56;;;;;;;17.48;14.10;;;;;;;7.64;60.45;100324.53;5093594;28;20035;-51
2021/12/17 04:18:22;;;;;;;17.15;14.07;;;;;;;7.52;61.10;100312.59;5093576;28;20058;-48
2021/12/17 04:20:48;;;;;;;19.75;15.20;;;;;;;7.53;61.28;100319.47;5093463;28;20024;-51
2021/12/17 04:23:14;;;;;;;17.48;13.48;;;;;;;7.64;61.73;100324.53;5093420;28;20031;-51
2021/12/17 04:25:40;;;;;;;17.10;13.95;;;;;;;7.78;61.27;100324.09;5093338;28;20020;-51
2021/12/17 04:28:06;;;;;;;19.88;15.15;;;;;;;7.88;61.66;100318.84;5093366;28;20490;-51
2021/12/17 04:30:32;;;;;;;21.63;14.63;;;;;;;7.95;60.89;100330.38;5091617;28;20456;-51
2021/12/17 04:32:58;;;;;;;20.25;13.35;;;;;;;7.90;60.93;100329.16;5093208;28;20069;-51
2021/12/17 04:35:24;;;;;;;19.20;13.52;;;;;;;7.93;60.87;100326.28;5093236;28;20095;-48
2021/12/17 04:37:51;;;;;;;23.15;13.60;;;;;;;8.05;61.25;100319.91;5093091;28;20028;-51
2021/12/17 04:40:19;;;;;;;17.75;12.80;;;;;;;8.16;60.47;100324.91;5093094;28;20504;-50
2021/12/17 04:43:00;;;;;;;19.25;14.93;;;;;;;8.14;60.09;100324.25;5093038;28;20016;-51
2021/12/17 04:45:26;;;;;;;17.17;13.68;;;;;;;8.11;60.13;100321.94;5092775;28;20035;-51
2021/12/17 04:58:49;;;;;;;26.38;15.32;;;;;;;7.68;60.59;100314.63;5093043;28;20093;-51
2021/12/17 05:01:16;;;;;;;26.05;14.88;;;;;;;7.60;60.67;100321.38;5092693;28;20051;-51
2021/12/17 05:03:42;;;;;;;18.17;13.52;;;;;;;7.56;60.90;100319.19;5091316;28;20052;-49
2021/12/17 05:06:08;;;;;;;23.52;15.30;;;;;;;7.60;61.74;100320.56;5092501;28;20035;-50
2021/12/17 05:08:34;;;;;;;23.85;14.40;;;;;;;7.66;61.58;100316.56;5092591;28;20024;-50
2021/12/17 05:11:37;;;;;;;19.25;13.85;;;;;;;7.74;60.77;100308.84;5092388;28;20047;-50
2021/12/17 05:19:48;;;;;;;24.90;15.60;;;;;;;7.76;61.56;100302.50;5049865;28;20021;-50
2021/12/17 05:22:14;;;;;;;19.55;14.07;;;;;;;7.84;60.83;100304.41;5049995;28;20173;-51
2021/12/17 05:24:40;;;;;;;18.15;14.98;;;;;;;7.80;61.44;100296.00;5073246;28;20413;-51
2021/12/17 05:27:06;;;;;;;16.88;14.32;;;;;;;7.75;60.73;100300.88;5090919;28;20486;-50
2021/12/17 05:29:32;;;;;;;16.45;14.07;;;;;;;7.55;61.57;100296.66;5091984;28;20536;-51
2021/12/17 05:31:58;;;;;;;24.05;18.50;;;;;;;7.22;61.60;100293.50;5092166;28;20028;-51
2021/12/17 05:34:24;;;;;;;21.25;16.42;;;;;;;6.92;61.89;100292.72;5092173;28;20024;-51
2021/12/17 05:36:50;;;;;;;30.35;22.70;;;;;;;6.57;62.12;100301.88;5092096;28;20108;-50
2021/12/17 05:39:15;;;;;;;19.92;15.15;;;;;;;6.35;63.30;100302.91;5090813;28;20486;-51
2021/12/17 05:41:41;;;;;;;17.73;14.38;;;;;;;6.32;63.76;100302.38;5092052;28;20016;-50
2021/12/17 05:44:07;;;;;;;24.75;16.30;;;;;;;6.20;63.67;100302.47;5090671;28;20038;-50
2021/12/17 05:46:48;;;;;;;32.05;26.50;;;;;;;5.92;64.79;100300.53;5091989;28;20012;-51
2021/12/17 05:49:21;;;;;;;25.75;18.15;;;;;;;5.73;65.37;100311.66;5090723;28;20492;-50
2021/12/17 05:51:48;;;;;;;29.40;23.13;;;;;;;5.76;65.08;100320.06;5091887;28;20024;-50
2021/12/17 05:54:15;;;;;;;20.10;14.95;;;;;;;5.78;65.21;100314.72;5091923;28;20027;-51
2021/12/17 05:56:42;;;;;;;19.17;15.02;;;;;;;5.73;65.23;100317.69;5091261;28;20095;-50
2021/12/17 05:59:08;;;;;;;20.38;14.15;;;;;;;5.60;65.57;100322.31;5091863;28;20016;-51
2021/12/17 06:01:35;;;;;;;18.17;13.52;;;;;;;5.46;65.19;100313.03;5091845;28;20020;-50
2021/12/17 06:04:02;;;;;;;21.27;15.00;;;;;;;5.27;65.50;100311.13;5091807;28;20503;-50
2021/12/17 06:06:33;;;;;;;22.92;14.23;;;;;;;5.22;65.49;100315.06;5091828;28;20066;-50
2021/12/17 06:09:02;;;;;;;20.00;13.57;;;;;;;5.16;65.57;100311.16;5091845;28;20028;-50
2021/12/17 06:11:28;;;;;;;17.85;14.00;;;;;;;5.05;65.37;100313.81;5091712;28;20020;-49
2021/12/17 06:13:54;;;;;;;19.85;14.20;;;;;;;4.98;64.55;100309.09;5091723;28;20054;-50
2021/12/17 06:16:20;;;;;;;17.55;13.55;;;;;;;4.90;64.96;100316.69;5091673;28;20035;-50
2021/12/17 06:18:46;;;;;;;20.23;14.80;;;;;;;4.76;65.32;100310.00;5091693;28;20378;-50
2021/12/17 06:21:12;;;;;;;20.35;16.52;;;;;;;4.74;64.77;100308.47;5091649;28;20024;-50
2021/12/17 06:23:38;;;;;;;20.10;16.30;;;;;;;4.75;65.58;100310.13;5091627;28;20413;-48
2021/12/17 06:26:05;;;;;;;43.92;34.78;;;;;;;4.84;65.78;100321.56;5091605;28;20016;-50
2021/12/17 06:28:31;;;;;;;20.95;16.15;;;;;;;4.90;66.11;100321.06;5091410;28;20020;-51
2021/12/17 06:30:57;;;;;;;21.15;16.67;;;;;;;4.73;66.86;100331.06;5091547;28;20099;-51
2021/12/17 06:33:23;;;;;;;19.27;15.27;;;;;;;4.69;67.54;100328.81;5091558;28;20020;-51
2021/12/17 06:35:49;;;;;;;30.17;25.67;;;;;;;4.84;66.79;100326.78;5091540;28;20035;-51
2021/12/17 06:38:14;;;;;;;19.05;15.05;;;;;;;4.84;66.60;100322.38;5090154;28;20020;-51
2021/12/17 06:40:40;;;;;;;21.83;15.90;;;;;;;4.60;67.01;100319.97;5091460;28;20032;-50
2021/12/17 06:43:06;;;;;;;29.10;22.52;;;;;;;4.46;67.21;100328.03;5091472;28;20031;-51
2021/12/17 06:48:21;;;;;;;34.25;25.33;;;;;;;4.61;67.13;100329.44;5091474;28;20410;-51
2021/12/17 07:10:12;;;;;;;33.42;29.08;;;;;;;4.68;65.99;100341.00;5094968;28;20486;-50
2021/12/17 07:23:17;;;;;;;28.20;19.17;;;;;;;4.33;65.89;100344.59;5094683;28;20085;-48
2021/12/17 07:28:55;;;;;;;22.35;17.65;;;;;;;4.15;66.00;100357.22;5094276;28;20043;-49
2021/12/17 07:34:03;;;;;;;26.83;18.23;;;;;;;4.76;65.66;100361.19;5094489;28;20409;-48
2021/12/17 07:36:43;;;;;;;23.13;17.15;;;;;;;5.24;64.90;100360.00;5094367;28;20024;-48
2021/12/17 07:39:09;;;;;;;25.17;17.77;;;;;;;5.71;64.22;100368.28;5094358;28;20016;-49
2021/12/17 07:41:35;;;;;;;24.10;16.23;;;;;;;6.05;63.05;100368.91;5094215;28;20398;-48
2021/12/17 07:44:02;;;;;;;27.90;18.63;;;;;;;6.46;62.61;100361.13;5094271;28;20016;-49
2021/12/17 07:46:29;;;;;;;29.90;18.63;;;;;;;6.75;60.48;100363.84;5092856;28;20031;-48
2021/12/17 07:48:55;;;;;;;24.13;18.13;;;;;;;6.73;59.58;100373.59;5094091;28;20020;-48
2021/12/17 07:51:23;;;;;;;24.95;19.98;;;;;;;6.61;60.97;100372.84;5092641;28;20024;-49
2021/12/17 07:53:50;;;;;;;33.88;24.80;;;;;;;6.51;62.40;100369.41;5094025;28;20043;-49
2021/12/17 07:56:20;;;;;;;31.48;21.83;;;;;;;6.33;63.21;100379.63;5092636;28;20027;-48
2021/12/17 07:58:45;;;;;;;32.90;27.60;;;;;;;6.16;64.35;100378.47;5093933;28;20024;-48
2021/12/17 08:01:12;;;;;;;454.13;391.92;;;;;;;5.88;63.84;100385.13;5092482;28;20123;-49
2021/12/17 08:03:39;;;;;;;937.47;625.75;;;;;;;5.45;63.82;100386.88;5092485;28;20153;-49
2021/12/17 08:06:05;;;;;;;219.48;136.90;;;;;;;5.29;64.38;100389.06;5092406;28;20141;-49
2021/12/17 08:08:31;;;;;;;53.10;35.08;;;;;;;5.44;63.28;100397.44;5093749;28;20031;-48
2021/12/17 08:10:57;;;;;;;38.28;27.05;;;;;;;5.44;63.53;100402.63;5092279;28;20401;-49
2021/12/17 08:13:27;;;;;;;41.80;27.83;;;;;;;5.47;63.74;100407.59;5093630;28;20020;-49
2021/12/17 08:31:32;;;;;;;34.00;21.73;;;;;;;7.93;56.77;100405.50;5093207;28;20028;-49
2021/12/17 08:33:59;;;;;;;26.85;19.95;;;;;;;8.14;56.60;100405.31;5093266;28;20028;-49
2021/12/17 08:36:28;;;;;;;26.70;21.92;;;;;;;8.55;56.05;100410.28;5093066;28;20047;-49
2021/12/17 08:38:53;;;;;;;37.00;29.83;;;;;;;8.98;56.45;100409.66;5093137;28;20531;-49
2021/12/17 08:41:21;;;;;;;25.33;22.30;;;;;;;9.37;53.96;100406.75;5091770;28;20036;-49
2021/12/17 08:43:47;;;;;;;30.92;22.65;;;;;;;9.74;52.93;100411.03;5093035;28;20024;-49
2021/12/17 08:46:13;;;;;;;22.98;19.05;;;;;;;9.96;52.34;100409.72;5092964;28;20028;-48
2021/12/17 08:48:38;;;;;;;23.30;19.55;;;;;;;10.53;51.67;100416.28;5091680;28;20024;-49
2021/12/17 08:51:07;;;;;;;21.30;16.80;;;;;;;11.16;49.79;100412.38;5092839;28;20103;-50
2021/12/17 08:53:34;;;;;;;48.05;27.75;;;;;;;11.77;48.61;100405.84;5092876;28;20436;-50
2021/12/17 08:56:01;;;;;;;112.03;23.10;;;;;;;12.37;46.97;100404.63;5092856;28;20024;-50
2021/12/17 08:58:27;;;;;;;66.03;21.90;;;;;;;12.62;46.21;100403.72;5074671;28;20024;-50
2021/12/17 09:00:52;;;;;;;34.63;22.73;;;;;;;12.74;45.42;100402.34;5092692;28;20028;-50
2021/12/17 09:03:18;;;;;;;42.40;21.38;;;;;;;12.64;45.43;100410.44;5091387;28;20531;-50
2021/12/17 09:05:46;;;;;;;31.20;19.58;;;;;;;12.62;43.77;100414.25;5091328;28;20031;-50
2021/12/17 09:08:12;;;;;;;60.45;19.95;;;;;;;12.92;44.43;100413.44;5091403;28;20139;-49
2021/12/17 09:10:38;;;;;;;181.40;26.08;;;;;;;13.55;43.65;100406.28;5091113;28;20553;-50
2021/12/17 09:13:05;;;;;;;82.68;22.10;;;;;;;14.35;42.54;100407.53;5092564;28;20066;-50
2021/12/17 09:15:31;;;;;;;65.50;20.75;;;;;;;15.00;40.60;100406.91;5092494;28;20050;-50
2021/12/17 09:17:57;;;;;;;22.38;17.42;;;;;;;15.06;40.05;100406.97;5091108;28;20118;-50
2021/12/17 09:20:23;;;;;;;23.90;17.15;;;;;;;15.18;39.71;100402.03;5092432;28;20063;-50
2021/12/17 09:22:49;;;;;;;34.47;19.70;;;;;;;15.43;39.97;100406.94;5092394;28;20016;-49
2021/12/17 09:25:15;;;;;;;34.55;18.15;;;;;;;15.85;38.88;100406.09;5090991;28;20035;-50
2021/12/17 09:27:41;;;;;;;26.88;17.00;;;;;;;15.78;38.61;100403.41;5092272;28;20422;-50
2021/12/17 09:30:11;;;;;;;25.92;15.57;;;;;;;15.88;38.63;100405.72;5091773;28;20064;-50
2021/12/17 09:32:39;;;;;;;23.02;15.45;;;;;;;16.27;38.18;100411.47;5091890;28;20044;-50
2021/12/17 09:35:06;;;;;;;19.30;15.25;;;;;;;16.76;37.28;100416.63;5092200;28;20024;-49
2021/12/17 09:37:31;;;;;;;18.50;16.58;;;;;;;16.92;36.90;100417.28;5092158;28;20144;-50
2021/12/17 09:39:57;;;;;;;18.33;16.30;;;;;;;16.57;37.12;100418.16;5092118;28;20031;-50
2021/12/17 09:42:24;;;;;;;29.35;16.13;;;;;;;16.93;37.27;100421.59;5092100;28;20020;-50
2021/12/17 09:44:50;;;;;;;16.20;13.63;;;;;;;17.32;36.33;100414.75;5090754;28;20382;-50
2021/12/17 09:47:16;;;;;;;18.48;13.23;;;;;;;17.23;36.24;100405.34;5090647;28;20077;-50
2021/12/17 09:49:42;;;;;;;17.00;13.00;;;;;;;17.08;36.59;100410.81;5092049;28;20110;-50
2021/12/17 09:52:09;;;;;;;16.40;13.50;;;;;;;16.54;37.12;100410.59;5091871;28;20103;-50
2021/12/17 09:54:36;;;;;;;15.40;13.43;;;;;;;16.36;37.26;100423.56;5091967;28;20042;-50
2021/12/17 09:57:02;;;;;;;22.98;14.48;;;;;;;16.23;37.63;100418.16;5091868;28;20024;-50
2021/12/17 09:59:28;;;;;;;817.53;586.22;;;;;;;16.39;37.81;100423.16;5090552;28;20024;-50
2021/12/17 10:01:54;;;;;;;170.65;123.88;;;;;;;17.00;37.10;100416.31;5091829;28;20024;-50
2021/12/17 10:04:31;;;;;;;40.45;30.25;;;;;;;17.82;36.31;100415.19;5091845;28;20389;-50
2021/12/17 10:07:36;;;;;;;34.72;26.48;;;;;;;18.67;35.53;100414.41;5091842;28;20047;-50
2021/12/17 10:10:05;;;;;;;22.33;16.83;;;;;;;18.68;33.49;100418.72;5029322;28;20060;-50
2021/12/17 10:12:36;;;;;;;22.30;16.50;;;;;;;18.14;34.83;100418.03;5012800;28;20022;-50
2021/12/17 10:15:18;;;;;;;20.42;14.90;;;;;;;18.58;33.99;100421.00;5052289;28;20064;-50
2021/12/17 10:18:01;;;;;;;16.17;14.15;;;;;;;18.86;33.31;100424.19;5090394;28;20028;-50
2021/12/17 10:20:29;;;;;;;102.60;92.22;;;;;;;18.59;33.49;100414.63;5091684;28;20035;-50
2021/12/17 10:23:14;;;;;;;27.65;23.95;;;;;;;18.60;33.60;100403.81;5090333;28;20048;-50
2021/12/17 10:25:44;;;;;;;277.38;249.45;;;;;;;18.44;33.74;100405.09;5091679;28;20032;-50
2021/12/17 10:28:11;;;;;;;33.65;30.15;;;;;;;18.66;33.30;100404.81;5091640;28;20040;-51
2021/12/17 10:30:39;;;;;;;19.58;15.93;;;;;;;18.54;32.35;100405.44;5091292;28;20119;-50
2021/12/17 10:33:11;;;;;;;139.85;109.43;;;;;;;18.20;33.57;100401.25;5090224;28;20028;-50
2021/12/17 10:35:45;;;;;;;20.05;15.40;;;;;;;18.11;33.23;100395.38;5091522;28;20035;-49
2021/12/17 10:38:15;;;;;;;14.75;13.18;;;;;;;18.13;33.24;100401.28;5091551;28;20123;-50
2021/12/17 10:43:26;;;;;;;47.38;42.55;;;;;;;17.48;34.22;100393.13;5094147;28;20064;-50
2021/12/17 10:51:43;;;;;;;18.88;16.77;;;;;;;17.23;35.28;100379.63;5095182;28;20035;-50
2021/12/17 10:54:20;;;;;;;18.90;17.02;;;;;;;17.76;34.64;100390.25;5095222;28;20039;-50
2021/12/17 10:56:53;;;;;;;13.32;12.00;;;;;;;18.19;33.37;100383.69;5095155;28;20016;-50
2021/12/17 10:59:20;;;;;;;25.23;12.80;;;;;;;18.34;33.22;100380.78;5095159;28;20042;-50
2021/12/17 11:01:55;;;;;;;14.70;12.20;;;;;;;18.32;33.29;100378.31;5093739;28;20111;-50
2021/12/17 11:04:23;;;;;;;13.15;10.70;;;;;;;18.36;33.06;100376.06;5095046;28;20028;-50
2021/12/17 11:06:54;;;;;;;16.38;11.48;;;;;;;18.41;32.89;100373.63;5094982;28;20055;-50
2021/12/17 11:09:51;;;;;;;24.58;13.35;;;;;;;18.67;33.41;100380.66;5094974;28;20076;-50
2021/12/17 11:12:23;;;;;;;14.90;12.02;;;;;;;19.03;32.35;100373.94;5094809;28;20516;-50
2021/12/17 11:14:49;;;;;;;13.23;11.90;;;;;;;18.83;32.24;100381.22;5094827;28;20389;-50
2021/12/17 11:17:20;;;;;;;18.48;16.65;;;;;;;18.79;32.21;100372.84;5095041;28;20024;-50
2021/12/17 11:19:50;;;;;;;15.65;13.63;;;;;;;18.75;32.35;100366.28;5094820;28;20102;-50
2021/12/17 11:22:17;;;;;;;13.15;11.65;;;;;;;18.75;32.25;100368.94;5094601;28;20401;-50
2021/12/17 11:24:43;;;;;;;15.13;12.63;;;;;;;18.56;32.59;100357.38;5094665;28;20562;-50
2021/12/17 11:27:09;;;;;;;18.92;16.98;;;;;;;18.43;32.70;100362.75;5093226;28;20020;-49
2021/12/17 11:29:35;;;;;;;17.85;13.40;;;;;;;18.31;32.98;100354.59;5092943;28;20401;-50
2021/12/17 11:32:04;;;;;;;16.45;12.00;;;;;;;18.12;32.94;100361.63;5094375;28;20035;-50
2021/12/17 11:34:32;;;;;;;18.70;16.83;;;;;;;17.65;33.20;100371.50;5094445;28;20020;-50
2021/12/17 11:37:07;;;;;;;17.98;13.20;;;;;;;16.87;34.81;100362.22;5094401;28;20024;-50
2021/12/17 11:39:39;;;;;;;31.35;26.08;;;;;;;16.40;35.73;100370.97;5094413;28;20028;-51
2021/12/17 11:42:16;;;;;;;20.23;15.40;;;;;;;16.32;36.02;100359.53;5094353;28;20060;-50
2021/12/17 11:44:52;;;;;;;25.55;18.02;;;;;;;15.98;36.22;100368.31;5094269;28;20024;-50
2021/12/17 11:47:19;;;;;;;18.83;15.90;;;;;;;15.94;36.58;100361.78;5094216;28;20023;-50
2021/12/17 11:49:51;;;;;;;19.95;13.93;;;;;;;15.86;36.88;100348.69;5092875;28;20028;-50
2021/12/17 11:52:41;;;;;;;18.10;15.05;;;;;;;16.20;36.31;100347.03;5094084;28;20024;-51
2021/12/17 11:55:30;;;;;;;17.38;14.52;;;;;;;16.41;35.29;100323.06;5093087;28;20135;-50
2021/12/17 11:57:59;;;;;;;15.63;12.80;;;;;;;16.39;35.29;100338.34;5094016;28;20024;-50
2021/12/17 12:00:49;;;;;;;27.05;15.48;;;;;;;16.31;36.46;100334.03;5093861;28;20016;-50
2021/12/17 12:03:24;;;;;;;18.40;15.40;;;;;;;17.11;34.69;100317.56;5093479;28;20098;-50
2021/12/17 12:05:52;;;;;;;15.02;13.45;;;;;;;17.17;34.05;100332.69;5093833;28;20457;-49
2021/12/17 12:08:47;;;;;;;13.25;11.85;;;;;;;17.23;34.36;100325.75;5092478;28;20032;-50
2021/12/17 12:11:18;;;;;;;16.17;12.88;;;;;;;17.30;33.96;100321.25;5092056;28;20120;-50
2021/12/17 12:13:49;;;;;;;15.95;11.07;;;;;;;17.40;34.48;100332.25;5093687;28;20036;-50
2021/12/17 12:16:28;;;;;;;23.17;18.70;;;;;;;17.28;34.85;100321.44;5092282;28;20027;-50
2021/12/17 12:19:07;;;;;;;14.07;12.60;;;;;;;16.84;33.93;100317.53;5093642;28;20030;-50
2021/12/17 12:21:36;;;;;;;13.38;12.07;;;;;;;16.37;35.42;100322.66;5093505;28;20089;-50
2021/12/17 12:24:16;;;;;;;18.08;12.50;;;;;;;16.04;36.02;100317.22;5093483;28;20020;-50
2021/12/17 12:26:50;;;;;;;24.45;22.17;;;;;;;16.13;35.49;100317.88;5093450;28;20028;-49
2021/12/17 12:29:21;;;;;;;18.00;13.85;;;;;;;16.05;35.69;100308.25;5093079;28;20104;-50
2021/12/17 12:31:53;;;;;;;15.00;12.07;;;;;;;16.17;35.97;100311.97;5093224;28;20020;-50
2021/12/17 12:34:21;;;;;;;12.45;11.13;;;;;;;16.51;35.00;100301.50;5091997;28;20032;-50
2021/12/17 12:37:08;;;;;;;13.32;11.85;;;;;;;16.28;35.29;100302.66;5091830;28;20114;-49
2021/12/17 12:40:14;;;;;;;16.08;11.85;;;;;;;16.11;35.80;100307.47;5093156;28;20040;-50
2021/12/17 12:42:46;;;;;;;19.13;15.83;;;;;;;16.62;33.95;100308.06;5093253;28;20481;-50
2021/12/17 12:45:14;;;;;;;12.30;11.07;;;;;;;15.85;34.75;100305.47;5091776;28;20111;-50
2021/12/17 12:47:43;;;;;;;16.55;13.45;;;;;;;15.21;36.29;100302.97;5093045;28;20059;-50
2021/12/17 12:50:12;;;;;;;21.73;19.40;;;;;;;14.81;36.59;100305.22;5093016;28;20023;-50
2021/12/17 12:52:45;;;;;;;45.47;38.75;;;;;;;14.37;37.78;100305.16;5091517;28;20270;-50
2021/12/17 12:55:16;;;;;;;53.38;34.92;;;;;;;14.47;37.82;100304.84;5092887;28;20556;-50
2021/12/17 12:57:46;;;;;;;272.27;241.80;;;;;;;14.64;38.15;100302.81;5092903;28;20107;-50
2021/12/17 13:00:23;;;;;;;86.18;77.15;;;;;;;14.72;37.52;100302.72;5092828;28;20078;-50
2021/12/17 13:03:03;;;;;;;20.73;15.27;;;;;;;14.90;37.42;100302.28;5091465;28;20119;-51
2021/12/17 13:05:30;;;;;;;66.90;60.63;;;;;;;15.11;36.93;100305.91;5092453;28;20036;-50
2021/12/17 13:07:58;;;;;;;38.47;34.72;;;;;;;15.20;37.20;100298.69;5091286;28;20056;-51
2021/12/17 13:10:30;;;;;;;26.20;22.73;;;;;;;15.35;36.69;100291.47;5092561;28;20024;-51
2021/12/17 13:13:02;;;;;;;20.67;18.48;;;;;;;15.16;36.44;100288.47;5091170;28;20135;-50
2021/12/17 13:23:23;;;;;;;39.80;35.83;;;;;;;14.11;38.34;100308.28;5092419;28;20024;-50
2021/12/17 13:26:11;;;;;;;27.08;24.50;;;;;;;13.96;39.41;100296.88;5092313;28;20016;-50
2021/12/17 13:29:11;;;;;;;54.88;49.60;;;;;;;14.15;39.84;100285.78;5092079;28;20031;-50
2021/12/17 13:32:00;;;;;;;71.72;64.93;;;;;;;14.72;38.71;100281.56;5092188;28;20027;-50
2021/12/17 13:34:42;;;;;;;23.17;20.52;;;;;;;15.16;37.92;100277.09;5092319;28;20023;-50
2021/12/17 13:37:12;;;;;;;26.75;23.95;;;;;;;15.12;38.01;100273.19;5092157;28;20024;-50
2021/12/17 13:39:45;;;;;;;78.95;71.10;;;;;;;15.25;37.98;100264.53;5092138;28;20389;-50
2021/12/17 13:42:15;;;;;;;56.55;51.17;;;;;;;15.26;37.69;100264.34;5090888;28;20413;-50
2021/12/17 13:45:03;;;;;;;42.00;37.67;;;;;;;15.06;37.84;100276.59;5090814;28;20070;-50
2021/12/17 13:47:30;;;;;;;40.20;36.17;;;;;;;14.25;38.80;100277.56;5092153;28;20028;-50
2021/12/17 13:49:59;;;;;;;23.83;21.42;;;;;;;13.76;39.66;100278.13;5090764;28;20031;-50
2021/12/17 13:52:28;;;;;;;80.28;72.03;;;;;;;13.39;40.48;100278.00;5090578;28;20115;-50
2021/12/17 13:54:56;;;;;;;40.72;35.15;;;;;;;13.18;41.02;100280.50;5090645;28;20516;-50
2021/12/17 13:57:25;;;;;;;16.85;15.05;;;;;;;13.13;41.41;100278.38;5091941;28;20024;-49
2021/12/17 13:59:51;;;;;;;13.57;12.18;;;;;;;13.06;40.68;100279.25;5090554;28;20021;-49
2021/12/17 14:02:20;;;;;;;16.83;12.55;;;;;;;12.48;41.62;100273.59;5091916;28;20103;-49
2021/12/17 14:05:09;;;;;;;21.40;13.27;;;;;;;12.23;42.13;100278.13;5090515;28;20054;-50
2021/12/17 14:07:37;;;;;;;14.57;12.77;;;;;;;12.05;42.16;100268.66;5091868;28;20028;-49
2021/12/17 14:10:16;;;;;;;16.70;12.57;;;;;;;11.48;43.45;100271.44;5091826;28;20382;-49
2021/12/17 14:12:43;;;;;;;13.57;12.18;;;;;;;10.91;44.90;100272.28;5091700;28;20485;-49
2021/12/17 14:15:17;;;;;;;14.48;11.65;;;;;;;10.56;45.88;100277.66;5090444;28;20035;-50
2021/12/17 14:17:46;;;;;;;14.70;11.05;;;;;;;10.61;45.78;100276.34;5093383;28;20070;-50
2021/12/17 14:20:14;;;;;;;14.02;12.15;;;;;;;10.67;46.10;100280.97;5095849;28;20529;-49